• Join FlightAware (Why Join?)
  • Login
  • US Flag 
01:19PM EDT


 

Airport Tracker/Info


-or-


 

Live Flight TrackerFlight Track Log ✈ AWE1693 ✈ 22-Jun-2013 ✈ KDCA - KCLT

Flight Track Log - Related Links

Times and Time Zones

All times are in EDT time to prevent confusion due to time zone crossing. See the AWE1693 flight status page for this flight to view local times or setup timezone preferences in your user account.

Time Position Orientation Groundspeed Altitude Reporting Facility
EDT Latitude Longitude Course Direction KTS MPH feet Rate Location/Type
09:37AM 38.8333 -77.0333 201° Southwest 138 159 1,200  Level Potomac TRACON
09:38AM 38.7833 -77.0333 180° South 190 219 3,100 1,860 Climbing Potomac TRACON
09:39AM 38.6303 -77.2702 222° Southwest  Level FlightAware Approximate
09:39AM 38.7167 -77.0333 180° South 241 277 4,800  Level Potomac TRACON
09:40AM 38.5521 -77.3615 222° Southwest  Level FlightAware Approximate
09:40AM 38.7000 -77.1000 252° West 275 316 5,000  Level Potomac TRACON
09:41AM 38.4766 -77.4563 225° Southwest  Level FlightAware Approximate
09:41AM 38.7000 -77.2000 270° West 275 316 5,900  Level Potomac TRACON
09:42AM 38.3973 -77.5430 201° Southwest  Level FlightAware Approximate
09:42AM 38.6667 -77.2833 243° Southwest 289 333 9,200  Level Potomac TRACON
09:43AM 38.6167 -77.3500 226° Southwest 313 360 11,000 1,680 Climbing Potomac TRACON
09:44AM 38.5578 -77.4078 218° Southwest 374 430 12,000 2,580 Climbing Washington Center
09:45AM 38.4772 -77.4878 218° Southwest 374 430 15,300 2,400 Climbing Washington Center
09:46AM 38.4117 -77.5525 218° Southwest 374 430 17,000 2,040 Climbing Washington Center
09:47AM 38.3261 -77.6772 229° Southwest 379 436 19,400 2,100 Climbing Washington Center
09:48AM 38.2553 -77.7864 230° Southwest 395 455 21,200 1,800 Climbing Washington Center
09:49AM 38.1803 -77.8978 229° Southwest 408 470 23,100 1,740 Climbing Washington Center
09:50AM 38.1031 -78.0114 229° Southwest 420 483 24,800 1,380 Climbing Washington Center
09:51AM 38.0383 -78.1069 229° Southwest 433 498 25,900 1,500 Climbing Washington Center
09:52AM 37.9544 -78.2333 230° Southwest 433 498 27,800 1,800 Climbing Washington Center
09:53AM 37.8639 -78.3642 229° Southwest 445 512 29,500 1,560 Climbing Washington Center
09:54AM 37.7819 -78.4819 229° Southwest 445 512 31,000 1,200 Climbing Washington Center
09:55AM 37.7017 -78.5997 229° Southwest 445 512 32,000 480 Climbing Washington Center
09:56AM 37.6172 -78.7197 228° Southwest 445 512 32,000  Level Washington Center
09:57AM 37.5436 -78.8267 229° Southwest 451 519 32,000  Level Washington Center
09:58AM 37.4589 -78.9433 228° Southwest 451 519 32,000  Level Washington Center
09:59AM 37.3742 -79.0650 229° Southwest 457 526 32,000  Level Washington Center
10:00AM 37.2894 -79.1839 228° Southwest 457 526 32,000  Level Washington Center
10:01AM 37.1964 -79.2864 221° Southwest 457 526 32,000  Level Washington Center
10:02AM 37.0789 -79.3797 212° Southwest 452 520 32,000  Level Washington Center
10:03AM 36.9758 -79.4658 214° Southwest 457 526 32,000  Level Washington Center
10:04AM 36.8708 -79.5514 213° Southwest 457 526 32,000 -420 Level Washington Center
10:06AM 36.6725 -79.7139 213° Southwest 450 518 30,800 -1,140 Descending Atlanta Center
10:07AM 36.5811 -79.7861 212° Southwest 421 484 28,600 -2,340 Descending Atlanta Center
10:08AM 36.4981 -79.8550 214° Southwest 391 450 26,200 -2,820 Descending Atlanta Center
10:09AM 36.4006 -79.9322 213° Southwest 373 429 23,000 -2,100 Descending Atlanta Center
10:10AM 36.3192 -80.0008 214° Southwest 368 423 22,000 -540 Descending Atlanta Center
10:11AM 36.2403 -80.0692 215° Southwest 363 418 22,000 -780 Level Atlanta Center
10:12AM 36.1631 -80.1347 214° Southwest 357 411 20,500 -1,620 Descending Atlanta Center
10:13AM 36.0939 -80.1919 214° Southwest 349 402 18,800 -1,500 Descending Atlanta Center
10:14AM 36.0186 -80.2547 214° Southwest 344 396 17,500 -1,620 Descending Atlanta Center
10:15AM 35.9417 -80.3250 216° Southwest 329 379 15,600 -1,680 Descending Atlanta Center
10:16AM 35.8664 -80.3897 215° Southwest 315 362 14,200 -1,380 Descending Atlanta Center
10:16AM 35.8297 -80.4222 216° Southwest 310 357 13,500 -1,440 Descending Atlanta Center
10:17AM 35.7686 -80.4736 214° Southwest 303 349 12,200 -1,560 Descending Atlanta Center
10:18AM 35.7300 -80.5058 214° Southwest 319 367 11,300 -1,620 Descending Atlanta Center
10:18AM 35.6914 -80.5408 216° Southwest 295 339 10,400 -900 Descending Atlanta Center
10:19AM 35.6242 -80.5975 214° Southwest 299 344 10,000 -240 Descending Atlanta Center
10:20AM 35.5547 -80.6514 212° Southwest 299 344 10,000  Level Atlanta Center
10:21AM 35.4853 -80.7078 213° Southwest 296 341 10,000  Level Atlanta Center
10:22AM 35.4139 -80.7667 214° Southwest 293 337 10,000  Level Atlanta Center
10:23AM 35.3608 -80.8147 216° Southwest 247 284 10,000  Level Atlanta Center
10:24AM 35.2969 -80.8400 198° South 242 278 10,000 -300 Level Atlanta Center
10:25AM 35.2281 -80.8378 178° South 244 281 9,400 -960 Descending Atlanta Center
10:26AM 35.1589 -80.8328 177° South 247 284 8,100 -1,200 Descending Atlanta Center
10:27AM 35.0919 -80.8250 175° South 245 282 7,000 -1,140 Descending Atlanta Center
10:28AM 35.0250 -80.8203 177° South 235 270 5,900 -1,260 Descending Atlanta Center
10:29AM 34.9539 -80.8128 175° South 230 265 4,400 -960 Descending Atlanta Center
10:30AM 34.8953 -80.8075 176° South 228 262 4,000 -240 Descending Atlanta Center
10:31AM 34.8347 -80.8022 176° South 201 231 4,000  Level Atlanta Center
10:32AM 34.7831 -80.8194 195° South 191 220 4,000  Level Atlanta Center
10:33AM 34.7722 -80.8831 258° West 193 222 4,000  Level Atlanta Center
10:34AM 34.8103 -80.9042 336° Northwest 182 209 4,000  Level Atlanta Center
10:35AM 34.8583 -80.9075 357° North 176 203 4,000  Level Atlanta Center
10:36AM 34.9044 -80.9108 357° North 177 204 4,000  Level Atlanta Center
10:37AM 34.9544 -80.9167 355° North 180 207 4,000  Level Atlanta Center
10:38AM 35.0047 -80.9197 357° North 179 206 4,000 -360 Level Atlanta Center
10:39AM 35.0569 -80.9256 355° North 174 200 3,300 -720 Descending Atlanta Center